sensor_id;sensor_type;location;lat;lon;timestamp;temperature;humidity
37786;DHT22;23625;48.784;9.336;2023-07-30T00:01:19;16.90;99.90
37786;DHT22;23625;48.784;9.336;2023-07-30T00:03:45;16.80;99.90
37786;DHT22;23625;48.784;9.336;2023-07-30T00:06:10;16.80;99.90
37786;DHT22;23625;48.784;9.336;2023-07-30T00:08:36;16.70;99.90
37786;DHT22;23625;48.784;9.336;2023-07-30T00:11:02;16.60;99.90
37786;DHT22;23625;48.784;9.336;2023-07-30T00:13:27;16.70;99.90
37786;DHT22;23625;48.784;9.336;2023-07-30T00:15:53;16.60;99.90
37786;DHT22;23625;48.784;9.336;2023-07-30T00:18:19;16.60;99.90
37786;DHT22;23625;48.784;9.336;2023-07-30T00:20:44;16.50;99.90
37786;DHT22;23625;48.784;9.336;2023-07-30T00:23:10;16.50;99.90
37786;DHT22;23625;48.784;9.336;2023-07-30T00:25:35;16.50;99.90
37786;DHT22;23625;48.784;9.336;2023-07-30T00:28:01;16.50;99.90
37786;DHT22;23625;48.784;9.336;2023-07-30T00:30:26;16.50;99.90
37786;DHT22;23625;48.784;9.336;2023-07-30T00:32:52;16.40;99.90
37786;DHT22;23625;48.784;9.336;2023-07-30T00:35:18;16.40;99.90
37786;DHT22;23625;48.784;9.336;2023-07-30T00:37:43;16.40;99.90
37786;DHT22;23625;48.784;9.336;2023-07-30T00:40:09;16.40;99.90
37786;DHT22;23625;48.784;9.336;2023-07-30T00:42:35;16.50;99.90
37786;DHT22;23625;48.784;9.336;2023-07-30T00:45:01;16.60;99.90
37786;DHT22;23625;48.784;9.336;2023-07-30T00:47:26;16.70;99.90
37786;DHT22;23625;48.784;9.336;2023-07-30T00:49:53;16.70;99.90
37786;DHT22;23625;48.784;9.336;2023-07-30T00:52:20;16.80;99.90
37786;DHT22;23625;48.784;9.336;2023-07-30T00:54:49;16.90;99.90
37786;DHT22;23625;48.784;9.336;2023-07-30T00:57:18;17.00;99.90
37786;DHT22;23625;48.784;9.336;2023-07-30T00:59:45;17.10;99.90
37786;DHT22;23625;48.784;9.336;2023-07-30T01:02:12;17.10;99.90
37786;DHT22;23625;48.784;9.336;2023-07-30T01:04:37;17.10;99.90
37786;DHT22;23625;48.784;9.336;2023-07-30T01:07:05;17.10;99.90
37786;DHT22;23625;48.784;9.336;2023-07-30T01:09:31;17.10;99.90
37786;DHT22;23625;48.784;9.336;2023-07-30T01:11:58;17.20;99.90
37786;DHT22;23625;48.784;9.336;2023-07-30T01:14:24;17.20;99.90
37786;DHT22;23625;48.784;9.336;2023-07-30T01:16:52;17.20;99.90
37786;DHT22;23625;48.784;9.336;2023-07-30T01:19:17;17.20;99.90
37786;DHT22;23625;48.784;9.336;2023-07-30T01:21:43;17.20;99.90
37786;DHT22;23625;48.784;9.336;2023-07-30T01:24:08;17.20;99.90
37786;DHT22;23625;48.784;9.336;2023-07-30T01:26:45;17.30;99.90
37786;DHT22;23625;48.784;9.336;2023-07-30T01:29:16;17.20;99.90
37786;DHT22;23625;48.784;9.336;2023-07-30T01:31:50;17.20;99.90
37786;DHT22;23625;48.784;9.336;2023-07-30T01:34:18;17.20;99.90
37786;DHT22;23625;48.784;9.336;2023-07-30T01:36:45;17.30;99.90
37786;DHT22;23625;48.784;9.336;2023-07-30T01:39:12;17.30;99.90
37786;DHT22;23625;48.784;9.336;2023-07-30T01:41:38;17.30;99.90
37786;DHT22;23625;48.784;9.336;2023-07-30T01:44:04;17.30;99.90
37786;DHT22;23625;48.784;9.336;2023-07-30T01:46:29;17.30;99.90
37786;DHT22;23625;48.784;9.336;2023-07-30T01:48:55;17.30;99.90
37786;DHT22;23625;48.784;9.336;2023-07-30T01:51:20;17.30;99.90
37786;DHT22;23625;48.784;9.336;2023-07-30T01:53:46;17.30;99.90
37786;DHT22;23625;48.784;9.336;2023-07-30T01:56:11;17.30;99.90
37786;DHT22;23625;48.784;9.336;2023-07-30T01:58:37;17.30;99.90
37786;DHT22;23625;48.784;9.336;2023-07-30T02:01:03;17.30;99.90
37786;DHT22;23625;48.784;9.336;2023-07-30T02:03:28;17.40;99.90
37786;DHT22;23625;48.784;9.336;2023-07-30T02:05:54;17.40;99.90
37786;DHT22;23625;48.784;9.336;2023-07-30T02:08:19;17.40;99.90
37786;DHT22;23625;48.784;9.336;2023-07-30T02:10:54;17.40;99.90
37786;DHT22;23625;48.784;9.336;2023-07-30T02:13:20;17.40;99.90
37786;DHT22;23625;48.784;9.336;2023-07-30T02:15:46;17.40;99.90
37786;DHT22;23625;48.784;9.336;2023-07-30T02:18:11;17.40;99.90
37786;DHT22;23625;48.784;9.336;2023-07-30T02:20:37;17.40;99.90
37786;DHT22;23625;48.784;9.336;2023-07-30T02:23:02;17.40;99.90
37786;DHT22;23625;48.784;9.336;2023-07-30T02:25:28;17.40;99.90
37786;DHT22;23625;48.784;9.336;2023-07-30T02:27:54;17.40;99.90
37786;DHT22;23625;48.784;9.336;2023-07-30T02:30:19;17.30;99.90
37786;DHT22;23625;48.784;9.336;2023-07-30T02:32:45;17.40;99.90
37786;DHT22;23625;48.784;9.336;2023-07-30T02:35:10;17.30;99.90
37786;DHT22;23625;48.784;9.336;2023-07-30T02:37:36;17.30;99.90
37786;DHT22;23625;48.784;9.336;2023-07-30T02:40:01;17.30;99.90
37786;DHT22;23625;48.784;9.336;2023-07-30T02:42:30;17.30;99.90
37786;DHT22;23625;48.784;9.336;2023-07-30T02:44:56;17.30;99.90
37786;DHT22;23625;48.784;9.336;2023-07-30T02:47:21;17.30;99.90
37786;DHT22;23625;48.784;9.336;2023-07-30T02:49:47;17.30;99.90
37786;DHT22;23625;48.784;9.336;2023-07-30T02:52:12;17.30;99.90
37786;DHT22;23625;48.784;9.336;2023-07-30T02:54:38;17.40;99.90
37786;DHT22;23625;48.784;9.336;2023-07-30T02:57:04;17.30;99.90
37786;DHT22;23625;48.784;9.336;2023-07-30T02:59:29;17.30;99.90
37786;DHT22;23625;48.784;9.336;2023-07-30T03:01:55;17.30;99.90
37786;DHT22;23625;48.784;9.336;2023-07-30T03:04:20;17.30;99.90
37786;DHT22;23625;48.784;9.336;2023-07-30T03:06:46;17.30;99.90
37786;DHT22;23625;48.784;9.336;2023-07-30T03:09:11;17.30;99.90
37786;DHT22;23625;48.784;9.336;2023-07-30T03:11:37;17.30;99.90
37786;DHT22;23625;48.784;9.336;2023-07-30T03:14:02;17.20;99.90
37786;DHT22;23625;48.784;9.336;2023-07-30T03:16:28;17.20;99.90
37786;DHT22;23625;48.784;9.336;2023-07-30T03:18:53;17.20;99.90
37786;DHT22;23625;48.784;9.336;2023-07-30T03:21:19;17.20;99.90
37786;DHT22;23625;48.784;9.336;2023-07-30T03:23:45;17.20;99.90
37786;DHT22;23625;48.784;9.336;2023-07-30T03:26:11;17.10;99.90
37786;DHT22;23625;48.784;9.336;2023-07-30T03:28:36;17.10;99.90
37786;DHT22;23625;48.784;9.336;2023-07-30T03:31:02;17.10;99.90
37786;DHT22;23625;48.784;9.336;2023-07-30T03:33:27;17.10;99.90
37786;DHT22;23625;48.784;9.336;2023-07-30T03:35:53;17.00;99.90
37786;DHT22;23625;48.784;9.336;2023-07-30T03:38:18;17.00;99.90
37786;DHT22;23625;48.784;9.336;2023-07-30T03:40:44;17.00;99.90
37786;DHT22;23625;48.784;9.336;2023-07-30T03:43:10;17.00;99.90
37786;DHT22;23625;48.784;9.336;2023-07-30T03:45:35;17.00;99.90
37786;DHT22;23625;48.784;9.336;2023-07-30T03:48:01;17.00;99.90
37786;DHT22;23625;48.784;9.336;2023-07-30T03:50:26;17.00;99.90
37786;DHT22;23625;48.784;9.336;2023-07-30T03:52:52;17.00;99.90
37786;DHT22;23625;48.784;9.336;2023-07-30T03:55:18;17.00;99.90
37786;DHT22;23625;48.784;9.336;2023-07-30T03:57:43;17.00;99.90
37786;DHT22;23625;48.784;9.336;2023-07-30T04:00:09;16.90;99.90
37786;DHT22;23625;48.784;9.336;2023-07-30T04:02:35;16.90;99.90
37786;DHT22;23625;48.784;9.336;2023-07-30T04:05:00;16.90;99.90
37786;DHT22;23625;48.784;9.336;2023-07-30T04:07:26;16.90;99.90
37786;DHT22;23625;48.784;9.336;2023-07-30T04:09:52;17.00;99.90
37786;DHT22;23625;48.784;9.336;2023-07-30T04:12:17;17.00;99.90
37786;DHT22;23625;48.784;9.336;2023-07-30T04:14:44;16.90;99.90
37786;DHT22;23625;48.784;9.336;2023-07-30T04:17:10;17.00;99.90
37786;DHT22;23625;48.784;9.336;2023-07-30T04:19:35;17.00;99.90
37786;DHT22;23625;48.784;9.336;2023-07-30T04:22:01;17.00;99.90
37786;DHT22;23625;48.784;9.336;2023-07-30T04:24:26;17.10;99.90
37786;DHT22;23625;48.784;9.336;2023-07-30T04:26:52;17.10;99.90
37786;DHT22;23625;48.784;9.336;2023-07-30T04:29:17;17.10;99.90
37786;DHT22;23625;48.784;9.336;2023-07-30T04:31:43;17.10;99.90
37786;DHT22;23625;48.784;9.336;2023-07-30T04:34:09;17.10;99.90
37786;DHT22;23625;48.784;9.336;2023-07-30T04:36:34;17.10;99.90
37786;DHT22;23625;48.784;9.336;2023-07-30T04:39:00;17.10;99.90
37786;DHT22;23625;48.784;9.336;2023-07-30T04:41:25;17.20;99.90
37786;DHT22;23625;48.784;9.336;2023-07-30T04:43:51;17.20;99.90
37786;DHT22;23625;48.784;9.336;2023-07-30T04:46:16;17.20;99.90
37786;DHT22;23625;48.784;9.336;2023-07-30T04:48:42;17.20;99.90
37786;DHT22;23625;48.784;9.336;2023-07-30T04:51:07;17.20;99.90
37786;DHT22;23625;48.784;9.336;2023-07-30T04:53:33;17.20;99.90
37786;DHT22;23625;48.784;9.336;2023-07-30T04:55:59;17.20;99.90
37786;DHT22;23625;48.784;9.336;2023-07-30T04:58:24;17.20;99.90
37786;DHT22;23625;48.784;9.336;2023-07-30T05:00:50;17.20;99.90
37786;DHT22;23625;48.784;9.336;2023-07-30T05:03:15;17.20;99.90
37786;DHT22;23625;48.784;9.336;2023-07-30T05:05:41;17.20;99.90
37786;DHT22;23625;48.784;9.336;2023-07-30T05:08:07;17.20;99.90
37786;DHT22;23625;48.784;9.336;2023-07-30T05:10:33;17.30;99.90
37786;DHT22;23625;48.784;9.336;2023-07-30T05:12:59;17.30;99.90
37786;DHT22;23625;48.784;9.336;2023-07-30T05:15:25;17.30;99.90
37786;DHT22;23625;48.784;9.336;2023-07-30T05:17:50;17.30;99.90
37786;DHT22;23625;48.784;9.336;2023-07-30T05:20:16;17.30;99.90
37786;DHT22;23625;48.784;9.336;2023-07-30T05:22:42;17.40;99.90
37786;DHT22;23625;48.784;9.336;2023-07-30T05:25:07;17.40;99.90
37786;DHT22;23625;48.784;9.336;2023-07-30T05:27:34;17.40;99.90
37786;DHT22;23625;48.784;9.336;2023-07-30T05:30:00;17.40;99.90
37786;DHT22;23625;48.784;9.336;2023-07-30T05:32:25;17.40;99.90
37786;DHT22;23625;48.784;9.336;2023-07-30T05:34:51;17.40;99.90
37786;DHT22;23625;48.784;9.336;2023-07-30T05:37:16;17.50;99.90
37786;DHT22;23625;48.784;9.336;2023-07-30T05:39:42;17.50;99.90
37786;DHT22;23625;48.784;9.336;2023-07-30T05:42:07;17.50;99.90
37786;DHT22;23625;48.784;9.336;2023-07-30T05:44:33;17.50;99.90
37786;DHT22;23625;48.784;9.336;2023-07-30T05:46:59;17.50;99.90
37786;DHT22;23625;48.784;9.336;2023-07-30T05:49:24;17.60;99.90
37786;DHT22;23625;48.784;9.336;2023-07-30T05:51:50;17.60;99.90
37786;DHT22;23625;48.784;9.336;2023-07-30T05:54:16;17.60;99.90
37786;DHT22;23625;48.784;9.336;2023-07-30T05:56:42;17.70;99.90
37786;DHT22;23625;48.784;9.336;2023-07-30T05:59:08;17.70;99.90
37786;DHT22;23625;48.784;9.336;2023-07-30T06:01:33;17.70;99.90
37786;DHT22;23625;48.784;9.336;2023-07-30T06:03:59;17.70;99.90
37786;DHT22;23625;48.784;9.336;2023-07-30T06:06:24;17.80;99.90
37786;DHT22;23625;48.784;9.336;2023-07-30T06:08:54;17.80;99.90
37786;DHT22;23625;48.784;9.336;2023-07-30T06:11:20;17.90;99.90
37786;DHT22;23625;48.784;9.336;2023-07-30T06:13:45;17.90;99.90
37786;DHT22;23625;48.784;9.336;2023-07-30T06:16:11;17.90;99.90
37786;DHT22;23625;48.784;9.336;2023-07-30T06:18:36;18.00;99.90
37786;DHT22;23625;48.784;9.336;2023-07-30T06:21:02;17.90;99.90
37786;DHT22;23625;48.784;9.336;2023-07-30T06:23:28;18.00;99.90
37786;DHT22;23625;48.784;9.336;2023-07-30T06:25:53;18.00;99.90
37786;DHT22;23625;48.784;9.336;2023-07-30T06:28:19;18.00;99.90
37786;DHT22;23625;48.784;9.336;2023-07-30T06:30:45;18.10;99.90
37786;DHT22;23625;48.784;9.336;2023-07-30T06:33:10;18.10;99.90
37786;DHT22;23625;48.784;9.336;2023-07-30T06:35:36;18.10;99.90
37786;DHT22;23625;48.784;9.336;2023-07-30T06:38:02;18.00;99.90
37786;DHT22;23625;48.784;9.336;2023-07-30T06:40:27;18.00;99.90
37786;DHT22;23625;48.784;9.336;2023-07-30T06:42:53;18.00;99.90
37786;DHT22;23625;48.784;9.336;2023-07-30T06:45:19;17.90;99.90
37786;DHT22;23625;48.784;9.336;2023-07-30T06:47:45;18.00;99.90
37786;DHT22;23625;48.784;9.336;2023-07-30T06:50:11;18.10;99.90
37786;DHT22;23625;48.784;9.336;2023-07-30T06:52:36;18.20;99.90
37786;DHT22;23625;48.784;9.336;2023-07-30T06:55:03;18.20;99.90
37786;DHT22;23625;48.784;9.336;2023-07-30T06:57:29;18.30;99.90
37786;DHT22;23625;48.784;9.336;2023-07-30T06:59:56;18.30;99.90
37786;DHT22;23625;48.784;9.336;2023-07-30T07:02:22;18.30;99.90
37786;DHT22;23625;48.784;9.336;2023-07-30T07:04:47;18.30;99.90
37786;DHT22;23625;48.784;9.336;2023-07-30T07:07:13;18.40;99.90
37786;DHT22;23625;48.784;9.336;2023-07-30T07:09:38;18.40;99.90
37786;DHT22;23625;48.784;9.336;2023-07-30T07:12:04;18.40;99.90
37786;DHT22;23625;48.784;9.336;2023-07-30T07:14:30;18.40;99.90
37786;DHT22;23625;48.784;9.336;2023-07-30T07:16:56;18.40;99.90
37786;DHT22;23625;48.784;9.336;2023-07-30T07:19:21;18.40;99.90
37786;DHT22;23625;48.784;9.336;2023-07-30T07:21:47;18.30;99.90
37786;DHT22;23625;48.784;9.336;2023-07-30T07:24:13;18.30;99.90
37786;DHT22;23625;48.784;9.336;2023-07-30T07:26:38;18.20;99.90
37786;DHT22;23625;48.784;9.336;2023-07-30T07:29:04;18.30;99.90
37786;DHT22;23625;48.784;9.336;2023-07-30T07:31:29;18.30;99.90
37786;DHT22;23625;48.784;9.336;2023-07-30T07:33:55;18.30;99.90
37786;DHT22;23625;48.784;9.336;2023-07-30T07:36:20;18.30;99.90
37786;DHT22;23625;48.784;9.336;2023-07-30T07:38:46;18.30;99.90
37786;DHT22;23625;48.784;9.336;2023-07-30T07:41:16;18.30;99.90
37786;DHT22;23625;48.784;9.336;2023-07-30T07:43:45;18.40;99.90
37786;DHT22;23625;48.784;9.336;2023-07-30T07:46:11;18.40;99.90
37786;DHT22;23625;48.784;9.336;2023-07-30T07:48:42;18.40;99.90
37786;DHT22;23625;48.784;9.336;2023-07-30T07:51:09;18.40;99.90
37786;DHT22;23625;48.784;9.336;2023-07-30T07:53:34;18.50;99.90
37786;DHT22;23625;48.784;9.336;2023-07-30T07:56:00;18.50;99.90
37786;DHT22;23625;48.784;9.336;2023-07-30T07:58:26;18.50;99.90
37786;DHT22;23625;48.784;9.336;2023-07-30T08:00:56;18.60;99.90
37786;DHT22;23625;48.784;9.336;2023-07-30T08:03:23;18.60;99.90
37786;DHT22;23625;48.784;9.336;2023-07-30T08:05:49;18.30;99.90
37786;DHT22;23625;48.784;9.336;2023-07-30T08:08:15;18.20;99.90
37786;DHT22;23625;48.784;9.336;2023-07-30T08:10:41;18.30;99.90
37786;DHT22;23625;48.784;9.336;2023-07-30T08:13:10;18.30;99.90
37786;DHT22;23625;48.784;9.336;2023-07-30T08:15:36;18.40;99.90
37786;DHT22;23625;48.784;9.336;2023-07-30T08:18:01;18.50;99.90
37786;DHT22;23625;48.784;9.336;2023-07-30T08:20:27;18.60;99.90
37786;DHT22;23625;48.784;9.336;2023-07-30T08:22:52;18.70;99.90
37786;DHT22;23625;48.784;9.336;2023-07-30T08:25:18;18.70;99.90
37786;DHT22;23625;48.784;9.336;2023-07-30T08:27:44;18.80;99.90
37786;DHT22;23625;48.784;9.336;2023-07-30T08:30:10;19.00;99.90
37786;DHT22;23625;48.784;9.336;2023-07-30T08:32:36;19.10;99.90
37786;DHT22;23625;48.784;9.336;2023-07-30T08:35:01;19.30;99.90
37786;DHT22;23625;48.784;9.336;2023-07-30T08:37:27;19.30;99.90
37786;DHT22;23625;48.784;9.336;2023-07-30T08:39:52;19.30;99.90
37786;DHT22;23625;48.784;9.336;2023-07-30T08:42:18;19.40;99.90
37786;DHT22;23625;48.784;9.336;2023-07-30T08:44:44;19.50;99.90
37786;DHT22;23625;48.784;9.336;2023-07-30T08:47:12;19.60;99.90
37786;DHT22;23625;48.784;9.336;2023-07-30T08:49:38;19.80;99.90
37786;DHT22;23625;48.784;9.336;2023-07-30T08:52:06;19.90;99.90
37786;DHT22;23625;48.784;9.336;2023-07-30T08:54:33;20.20;99.90
37786;DHT22;23625;48.784;9.336;2023-07-30T08:56:59;20.30;99.90
37786;DHT22;23625;48.784;9.336;2023-07-30T08:59:27;20.50;99.90
37786;DHT22;23625;48.784;9.336;2023-07-30T09:01:55;20.50;99.90
37786;DHT22;23625;48.784;9.336;2023-07-30T09:04:22;20.60;99.90
37786;DHT22;23625;48.784;9.336;2023-07-30T09:06:48;20.60;99.90
37786;DHT22;23625;48.784;9.336;2023-07-30T09:09:14;20.60;99.90
37786;DHT22;23625;48.784;9.336;2023-07-30T09:11:40;20.50;99.90
37786;DHT22;23625;48.784;9.336;2023-07-30T09:14:06;20.40;99.90
37786;DHT22;23625;48.784;9.336;2023-07-30T09:16:32;20.40;99.90
37786;DHT22;23625;48.784;9.336;2023-07-30T09:18:57;20.30;99.90
37786;DHT22;23625;48.784;9.336;2023-07-30T09:21:33;20.20;99.90
37786;DHT22;23625;48.784;9.336;2023-07-30T09:24:02;20.20;99.90
37786;DHT22;23625;48.784;9.336;2023-07-30T09:26:44;20.30;99.90
37786;DHT22;23625;48.784;9.336;2023-07-30T09:29:10;20.50;99.90
37786;DHT22;23625;48.784;9.336;2023-07-30T09:31:53;20.60;99.90
37786;DHT22;23625;48.784;9.336;2023-07-30T09:34:20;20.60;99.90
37786;DHT22;23625;48.784;9.336;2023-07-30T09:36:47;20.50;99.90
37786;DHT22;23625;48.784;9.336;2023-07-30T09:39:18;20.50;99.90
37786;DHT22;23625;48.784;9.336;2023-07-30T09:41:45;20.40;99.90
37786;DHT22;23625;48.784;9.336;2023-07-30T09:44:11;20.50;99.90
37786;DHT22;23625;48.784;9.336;2023-07-30T09:46:44;20.50;99.90
37786;DHT22;23625;48.784;9.336;2023-07-30T09:49:10;20.40;99.90
37786;DHT22;23625;48.784;9.336;2023-07-30T09:51:37;20.50;99.90
37786;DHT22;23625;48.784;9.336;2023-07-30T09:54:04;20.50;99.90
37786;DHT22;23625;48.784;9.336;2023-07-30T09:56:31;20.50;99.90
37786;DHT22;23625;48.784;9.336;2023-07-30T09:58:56;20.60;99.90
37786;DHT22;23625;48.784;9.336;2023-07-30T10:01:23;20.60;99.90
37786;DHT22;23625;48.784;9.336;2023-07-30T10:03:50;20.70;99.90
37786;DHT22;23625;48.784;9.336;2023-07-30T10:06:16;20.80;99.90
37786;DHT22;23625;48.784;9.336;2023-07-30T10:08:43;20.80;99.90
37786;DHT22;23625;48.784;9.336;2023-07-30T10:11:10;20.90;99.90
37786;DHT22;23625;48.784;9.336;2023-07-30T10:13:37;20.90;99.90
37786;DHT22;23625;48.784;9.336;2023-07-30T10:16:10;20.90;99.90
37786;DHT22;23625;48.784;9.336;2023-07-30T10:18:40;20.90;99.90
37786;DHT22;23625;48.784;9.336;2023-07-30T10:21:07;20.90;99.90
37786;DHT22;23625;48.784;9.336;2023-07-30T10:23:34;21.00;99.90
37786;DHT22;23625;48.784;9.336;2023-07-30T10:26:09;21.00;99.90
37786;DHT22;23625;48.784;9.336;2023-07-30T10:28:36;20.90;99.90
37786;DHT22;23625;48.784;9.336;2023-07-30T10:31:08;20.80;99.90
37786;DHT22;23625;48.784;9.336;2023-07-30T10:36:11;21.00;99.90
37786;DHT22;23625;48.784;9.336;2023-07-30T10:38:37;21.10;99.90
37786;DHT22;23625;48.784;9.336;2023-07-30T10:41:09;21.40;99.90
37786;DHT22;23625;48.784;9.336;2023-07-30T10:43:39;21.60;99.90
37786;DHT22;23625;48.784;9.336;2023-07-30T10:46:05;21.70;99.90
37786;DHT22;23625;48.784;9.336;2023-07-30T10:48:32;21.90;99.90
37786;DHT22;23625;48.784;9.336;2023-07-30T10:51:00;22.20;99.90
37786;DHT22;23625;48.784;9.336;2023-07-30T10:53:26;22.30;99.90
37786;DHT22;23625;48.784;9.336;2023-07-30T10:55:52;22.50;99.90
37786;DHT22;23625;48.784;9.336;2023-07-30T10:58:18;22.50;99.90
37786;DHT22;23625;48.784;9.336;2023-07-30T11:00:44;22.50;99.90
37786;DHT22;23625;48.784;9.336;2023-07-30T11:03:09;22.70;99.50
37786;DHT22;23625;48.784;9.336;2023-07-30T11:05:38;22.80;99.30
37786;DHT22;23625;48.784;9.336;2023-07-30T11:08:04;22.80;98.60
37786;DHT22;23625;48.784;9.336;2023-07-30T11:10:30;23.10;99.90
37786;DHT22;23625;48.784;9.336;2023-07-30T11:12:57;23.40;91.50
37786;DHT22;23625;48.784;9.336;2023-07-30T11:15:24;23.50;98.90
37786;DHT22;23625;48.784;9.336;2023-07-30T11:17:52;23.70;93.50
37786;DHT22;23625;48.784;9.336;2023-07-30T11:20:24;23.80;90.70
37786;DHT22;23625;48.784;9.336;2023-07-30T11:22:53;23.50;89.60
37786;DHT22;23625;48.784;9.336;2023-07-30T11:25:19;23.50;93.40
37786;DHT22;23625;48.784;9.336;2023-07-30T11:27:49;23.40;92.70
37786;DHT22;23625;48.784;9.336;2023-07-30T11:30:15;23.20;92.20
37786;DHT22;23625;48.784;9.336;2023-07-30T11:32:44;22.80;91.90
37786;DHT22;23625;48.784;9.336;2023-07-30T11:35:14;22.50;93.20
37786;DHT22;23625;48.784;9.336;2023-07-30T11:37:41;22.30;95.40
37786;DHT22;23625;48.784;9.336;2023-07-30T11:40:09;22.20;94.50
37786;DHT22;23625;48.784;9.336;2023-07-30T11:42:36;22.00;93.80
37786;DHT22;23625;48.784;9.336;2023-07-30T11:45:21;21.70;95.10
37786;DHT22;23625;48.784;9.336;2023-07-30T11:47:48;21.50;95.20
37786;DHT22;23625;48.784;9.336;2023-07-30T11:50:14;21.60;98.50
37786;DHT22;23625;48.784;9.336;2023-07-30T11:52:56;21.70;99.90
37786;DHT22;23625;48.784;9.336;2023-07-30T11:55:22;21.90;99.90
37786;DHT22;23625;48.784;9.336;2023-07-30T11:57:50;22.10;99.90
37786;DHT22;23625;48.784;9.336;2023-07-30T12:00:16;22.30;98.80
37786;DHT22;23625;48.784;9.336;2023-07-30T12:02:41;22.40;99.90
37786;DHT22;23625;48.784;9.336;2023-07-30T12:05:10;22.60;99.90
37786;DHT22;23625;48.784;9.336;2023-07-30T12:07:39;22.80;98.90
37786;DHT22;23625;48.784;9.336;2023-07-30T12:10:09;22.70;99.40
37786;DHT22;23625;48.784;9.336;2023-07-30T12:12:35;23.00;98.00
37786;DHT22;23625;48.784;9.336;2023-07-30T12:15:00;23.20;96.40
37786;DHT22;23625;48.784;9.336;2023-07-30T12:17:27;23.20;90.50
37786;DHT22;23625;48.784;9.336;2023-07-30T12:19:52;23.10;95.10
37786;DHT22;23625;48.784;9.336;2023-07-30T12:22:18;23.20;92.20
37786;DHT22;23625;48.784;9.336;2023-07-30T12:24:43;23.20;93.90
37786;DHT22;23625;48.784;9.336;2023-07-30T12:27:09;23.40;92.70
37786;DHT22;23625;48.784;9.336;2023-07-30T12:29:34;23.30;89.50
37786;DHT22;23625;48.784;9.336;2023-07-30T12:32:00;23.30;93.30
37786;DHT22;23625;48.784;9.336;2023-07-30T12:34:25;23.30;90.10
37786;DHT22;23625;48.784;9.336;2023-07-30T12:36:51;23.30;90.10
37786;DHT22;23625;48.784;9.336;2023-07-30T12:39:17;23.10;91.90
37786;DHT22;23625;48.784;9.336;2023-07-30T12:41:42;23.10;93.80
37786;DHT22;23625;48.784;9.336;2023-07-30T12:44:08;23.30;89.20
37786;DHT22;23625;48.784;9.336;2023-07-30T12:46:35;23.40;90.40
37786;DHT22;23625;48.784;9.336;2023-07-30T12:49:00;23.30;89.30
37786;DHT22;23625;48.784;9.336;2023-07-30T12:51:29;23.30;87.20
37786;DHT22;23625;48.784;9.336;2023-07-30T12:53:55;23.40;87.50
37786;DHT22;23625;48.784;9.336;2023-07-30T12:56:20;23.40;89.00
37786;DHT22;23625;48.784;9.336;2023-07-30T12:58:46;23.30;90.80
37786;DHT22;23625;48.784;9.336;2023-07-30T13:01:12;22.90;91.00
37786;DHT22;23625;48.784;9.336;2023-07-30T13:03:37;22.80;94.10
37786;DHT22;23625;48.784;9.336;2023-07-30T13:06:04;22.70;94.40
37786;DHT22;23625;48.784;9.336;2023-07-30T13:08:30;22.70;92.60
37786;DHT22;23625;48.784;9.336;2023-07-30T13:10:55;23.00;96.10
37786;DHT22;23625;48.784;9.336;2023-07-30T13:13:21;23.30;91.70
37786;DHT22;23625;48.784;9.336;2023-07-30T13:15:47;23.30;86.70
37786;DHT22;23625;48.784;9.336;2023-07-30T13:18:12;23.30;87.00
37786;DHT22;23625;48.784;9.336;2023-07-30T13:20:38;23.50;83.30
37786;DHT22;23625;48.784;9.336;2023-07-30T13:23:03;23.50;82.20
37786;DHT22;23625;48.784;9.336;2023-07-30T13:25:29;23.30;79.70
37786;DHT22;23625;48.784;9.336;2023-07-30T13:27:55;23.50;78.70
37786;DHT22;23625;48.784;9.336;2023-07-30T13:30:20;23.70;78.50
37786;DHT22;23625;48.784;9.336;2023-07-30T13:32:46;23.50;74.30
37786;DHT22;23625;48.784;9.336;2023-07-30T13:35:12;23.30;80.00
37786;DHT22;23625;48.784;9.336;2023-07-30T13:37:37;23.30;75.90
37786;DHT22;23625;48.784;9.336;2023-07-30T13:40:03;23.70;82.50
37786;DHT22;23625;48.784;9.336;2023-07-30T13:42:29;24.00;75.80
37786;DHT22;23625;48.784;9.336;2023-07-30T13:44:54;24.20;71.60
37786;DHT22;23625;48.784;9.336;2023-07-30T13:47:20;24.50;76.40
37786;DHT22;23625;48.784;9.336;2023-07-30T13:49:45;24.50;70.30
37786;DHT22;23625;48.784;9.336;2023-07-30T13:52:13;24.30;68.90
37786;DHT22;23625;48.784;9.336;2023-07-30T13:54:38;24.10;68.50
37786;DHT22;23625;48.784;9.336;2023-07-30T13:57:04;24.10;69.80
37786;DHT22;23625;48.784;9.336;2023-07-30T13:59:30;24.00;69.40
37786;DHT22;23625;48.784;9.336;2023-07-30T14:01:56;24.10;71.30
37786;DHT22;23625;48.784;9.336;2023-07-30T14:04:22;24.00;70.80
37786;DHT22;23625;48.784;9.336;2023-07-30T14:06:47;23.90;74.30
37786;DHT22;23625;48.784;9.336;2023-07-30T14:09:13;23.60;74.10
37786;DHT22;23625;48.784;9.336;2023-07-30T14:11:38;23.40;76.40
37786;DHT22;23625;48.784;9.336;2023-07-30T14:14:08;23.40;80.50
37786;DHT22;23625;48.784;9.336;2023-07-30T14:16:33;23.60;77.90
37786;DHT22;23625;48.784;9.336;2023-07-30T14:18:59;23.50;75.50
37786;DHT22;23625;48.784;9.336;2023-07-30T14:21:25;23.70;74.00
37786;DHT22;23625;48.784;9.336;2023-07-30T14:23:50;23.60;73.90
37786;DHT22;23625;48.784;9.336;2023-07-30T14:26:16;23.30;72.90
37786;DHT22;23625;48.784;9.336;2023-07-30T14:28:41;23.10;75.20
37786;DHT22;23625;48.784;9.336;2023-07-30T14:31:07;23.20;79.20
37786;DHT22;23625;48.784;9.336;2023-07-30T14:33:32;23.20;75.80
37786;DHT22;23625;48.784;9.336;2023-07-30T14:35:58;23.30;76.90
37786;DHT22;23625;48.784;9.336;2023-07-30T14:38:24;23.30;76.50
37786;DHT22;23625;48.784;9.336;2023-07-30T14:40:49;23.50;74.60
37786;DHT22;23625;48.784;9.336;2023-07-30T14:43:15;23.40;72.80
37786;DHT22;23625;48.784;9.336;2023-07-30T14:45:40;23.20;73.00
37786;DHT22;23625;48.784;9.336;2023-07-30T14:48:06;23.20;71.60
37786;DHT22;23625;48.784;9.336;2023-07-30T14:50:32;23.30;70.60
37786;DHT22;23625;48.784;9.336;2023-07-30T14:52:57;23.30;71.90
37786;DHT22;23625;48.784;9.336;2023-07-30T14:55:23;23.50;72.10
37786;DHT22;23625;48.784;9.336;2023-07-30T14:57:49;23.30;68.10
37786;DHT22;23625;48.784;9.336;2023-07-30T15:00:14;23.00;70.30
37786;DHT22;23625;48.784;9.336;2023-07-30T15:02:42;23.00;71.50
37786;DHT22;23625;48.784;9.336;2023-07-30T15:05:08;22.90;72.40
37786;DHT22;23625;48.784;9.336;2023-07-30T15:07:34;22.90;75.10
37786;DHT22;23625;48.784;9.336;2023-07-30T15:09:59;22.90;70.70
37786;DHT22;23625;48.784;9.336;2023-07-30T15:12:25;22.80;71.60
37786;DHT22;23625;48.784;9.336;2023-07-30T15:14:51;22.80;69.30
37786;DHT22;23625;48.784;9.336;2023-07-30T15:17:16;22.90;70.20
37786;DHT22;23625;48.784;9.336;2023-07-30T15:19:42;23.30;70.00
37786;DHT22;23625;48.784;9.336;2023-07-30T15:22:12;23.30;65.70
37786;DHT22;23625;48.784;9.336;2023-07-30T15:24:38;23.30;64.20
37786;DHT22;23625;48.784;9.336;2023-07-30T15:27:04;23.30;63.40